Time;durP1;ratioP1;P1;durP2;ratioP2;P2;SDS_P1;SDS_P2;PMS_P1;PMS_P2;Temp;Humidity;BMP_temperature;BMP_pressure;BME280_temperature;BME280_humidity;BME280_pressure;Samples;Min_cycle;Max_cycle;Signal;HPM_P1;HPM_P2
2023/10/19 00:01:12;;;;;;;;;;;;;;;6.05;100.00;99992.13;4993976;28;886;-72
2023/10/19 00:03:38;;;;;;;;;;;;;;;6.02;100.00;99992.88;4993938;28;930;-72
2023/10/19 00:06:05;;;;;;;;;;;;;;;6.02;100.00;99987.38;4993648;28;882;-72
2023/10/19 00:08:41;;;;;;;;;;;;;;;6.03;100.00;99984.25;4993553;28;851;-72
2023/10/19 00:11:09;;;;;;;;;;;;;;;6.07;100.00;99981.56;4993464;28;1894;-72
2023/10/19 00:13:37;;;;;;;;;;;;;;;6.10;100.00;99980.81;4993583;28;859;-72
2023/10/19 00:16:29;;;;;;;;;;;;;;;6.10;100.00;99973.41;4976082;28;1337;-72
2023/10/19 00:18:52;;;;;;;;;;;;;;;6.03;100.00;99967.00;4992771;28;1187;-71
2023/10/19 00:23:51;;;;;;;;;;;;;;;5.85;100.00;99959.25;4993081;28;1261;-72
2023/10/19 00:26:20;;;;;;;;;;;;;;;5.83;100.00;99961.56;4993411;28;803;-72
2023/10/19 00:28:53;;;;;;;;;;;;;;;5.84;100.00;99957.66;4993198;28;878;-73
2023/10/19 00:31:22;;;;;;;;;;;;;;;5.89;100.00;99968.31;4975639;28;1919;-74
2023/10/19 00:33:54;;;;;;;;;;;;;;;5.91;100.00;99963.28;4993532;28;795;-72
2023/10/19 00:36:22;;;;;;;;;;;;;;;5.97;100.00;99961.03;4993107;28;799;-72
2023/10/19 00:41:29;;;;;;;;;;;;;;;6.00;100.00;99954.81;4993134;28;827;-72
2023/10/19 00:44:12;;;;;;;;;;;;;;;5.92;100.00;99948.38;4993215;28;1054;-73
2023/10/19 00:49:15;;;;;;;;;;;;;;;5.82;100.00;99948.19;4992988;28;822;-72
2023/10/19 00:54:35;;;;;;;;;;;;;;;5.84;100.00;99945.88;4992778;28;815;-72
2023/10/19 00:57:10;;;;;;;;;;;;;;;5.81;100.00;99950.16;4993250;28;839;-73
2023/10/19 00:59:54;;;;;;;;;;;;;;;5.81;100.00;99947.41;4975362;28;1337;-72
2023/10/19 01:05:05;;;;;;;;;;;;;;;5.85;100.00;99940.03;4992835;28;894;-73
2023/10/19 01:07:37;;;;;;;;;;;;;;;5.84;100.00;99938.44;4992788;28;799;-72
2023/10/19 01:10:19;;;;;;;;;;;;;;;5.86;100.00;99936.13;4992582;28;1886;-72
2023/10/19 01:12:50;;;;;;;;;;;;;;;5.83;100.00;99933.34;4992562;28;1085;-72
2023/10/19 01:15:29;;;;;;;;;;;;;;;5.80;100.00;99929.34;4992590;28;835;-72
2023/10/19 01:17:57;;;;;;;;;;;;;;;5.78;100.00;99930.88;4992787;28;906;-73
2023/10/19 01:28:24;;;;;;;;;;;;;;;5.55;100.00;99926.22;4992581;28;653;-72
2023/10/19 01:30:53;;;;;;;;;;;;;;;5.61;100.00;99916.53;4992766;28;1972;-73
2023/10/19 01:33:21;;;;;;;;;;;;;;;5.82;100.00;99921.56;4992741;28;842;-72
2023/10/19 01:38:33;;;;;;;;;;;;;;;5.79;100.00;99922.31;4992654;28;646;-72
2023/10/19 01:41:01;;;;;;;;;;;;;;;5.77;100.00;99912.88;4992567;28;1185;-72
2023/10/19 01:43:31;;;;;;;;;;;;;;;5.72;100.00;99916.72;4992801;28;982;-72
2023/10/19 01:45:58;;;;;;;;;;;;;;;5.70;100.00;99911.59;4992514;28;886;-72
2023/10/19 01:48:44;;;;;;;;;;;;;;;5.67;100.00;99915.03;4992305;28;877;-72
2023/10/19 01:51:12;;;;;;;;;;;;;;;5.65;100.00;99922.06;4992696;28;1891;-72
2023/10/19 01:53:42;;;;;;;;;;;;;;;5.66;100.00;99921.69;4992290;28;820;-73
2023/10/19 01:56:10;;;;;;;;;;;;;;;5.72;100.00;99924.94;4993013;28;866;-73
2023/10/19 01:58:37;;;;;;;;;;;;;;;5.74;100.00;99925.38;4992454;28;877;-72
2023/10/19 02:03:43;;;;;;;;;;;;;;;5.70;100.00;99921.78;4992376;28;649;-73
2023/10/19 02:06:20;;;;;;;;;;;;;;;5.68;100.00;99921.34;4992150;28;879;-72
2023/10/19 02:08:48;;;;;;;;;;;;;;;5.71;100.00;99920.59;4992253;28;808;-73
2023/10/19 02:11:18;;;;;;;;;;;;;;;5.82;100.00;99920.78;4992089;28;1961;-72
2023/10/19 02:13:52;;;;;;;;;;;;;;;5.93;100.00;99922.53;4994093;28;799;-72
2023/10/19 02:16:22;;;;;;;;;;;;;;;5.99;100.00;99925.78;4978453;28;1300;-72
2023/10/19 02:18:50;;;;;;;;;;;;;;;5.99;100.00;99928.53;4995820;28;958;-72
2023/10/19 02:21:26;;;;;;;;;;;;;;;5.99;100.00;99930.47;4995986;28;779;-73
2023/10/19 02:23:52;;;;;;;;;;;;;;;6.00;100.00;99927.38;4957390;28;898;-73
2023/10/19 02:26:20;;;;;;;;;;;;;;;5.97;100.00;99922.59;4956804;28;882;-73
2023/10/19 02:28:50;;;;;;;;;;;;;;;5.93;100.00;99930.78;4971738;28;1591;-72
2023/10/19 02:31:21;;;;;;;;;;;;;;;5.88;100.00;99922.84;4956711;28;1918;-72
2023/10/19 02:33:52;;;;;;;;;;;;;;;5.90;100.00;99926.00;4956632;28;1108;-72
2023/10/19 02:36:22;;;;;;;;;;;;;;;5.93;100.00;99927.22;4956839;28;1244;-72
2023/10/19 02:38:49;;;;;;;;;;;;;;;5.90;100.00;99922.47;4956881;28;875;-72
2023/10/19 02:41:17;;;;;;;;;;;;;;;5.84;100.00;99921.19;4971441;28;855;-72
2023/10/19 02:46:55;;;;;;;;;;;;;;;5.61;100.00;99923.94;4916431;29;1041;-72
2023/10/19 02:49:22;;;;;;;;;;;;;;;5.44;100.00;99919.75;4916207;29;844;-72
2023/10/19 02:51:50;;;;;;;;;;;;;;;5.31;100.00;99913.63;4916115;29;1898;-72
2023/10/19 02:54:21;;;;;;;;;;;;;;;5.16;100.00;99911.78;4915983;29;1366;-72
2023/10/19 02:56:51;;;;;;;;;;;;;;;5.06;100.00;99913.97;4916465;29;843;-72
2023/10/19 02:59:22;;;;;;;;;;;;;;;4.99;100.00;99915.78;4916004;29;1164;-72
2023/10/19 03:04:35;;;;;;;;;;;;;;;5.02;100.00;99915.84;4915946;29;972;-73
2023/10/19 03:07:05;;;;;;;;;;;;;;;5.06;100.00;99919.47;4915821;29;858;-73
2023/10/19 03:09:36;;;;;;;;;;;;;;;5.09;100.00;99917.94;4916017;29;868;-73
2023/10/19 03:12:04;;;;;;;;;;;;;;;5.23;100.00;99923.69;4915928;29;1078;-72
2023/10/19 03:14:31;;;;;;;;;;;;;;;5.46;100.00;99920.97;4915847;29;862;-73
2023/10/19 03:16:59;;;;;;;;;;;;;;;5.57;100.00;99918.44;4925979;29;1060;-72
2023/10/19 03:19:26;;;;;;;;;;;;;;;5.63;100.00;99919.72;4955979;28;811;-73
2023/10/19 03:22:00;;;;;;;;;;;;;;;5.68;100.00;99921.34;4962473;28;1242;-72
2023/10/19 03:24:35;;;;;;;;;;;;;;;5.72;100.00;99916.72;4976787;28;1181;-72
2023/10/19 03:27:24;;;;;;;;;;;;;;;5.82;100.00;99920.78;4994352;28;820;-73
2023/10/19 03:29:55;;;;;;;;;;;;;;;5.82;100.00;99912.53;4994218;28;1903;-71
2023/10/19 03:32:26;;;;;;;;;;;;;;;5.76;100.00;99906.59;4994443;28;954;-72
2023/10/19 03:34:55;;;;;;;;;;;;;;;5.75;100.00;99902.25;4994426;28;921;-72
2023/10/19 03:37:24;;;;;;;;;;;;;;;5.79;100.00;99903.09;4994224;28;910;-72
2023/10/19 03:39:51;;;;;;;;;;;;;;;5.89;100.00;99901.69;4994287;28;867;-72
2023/10/19 03:42:16;;;;;;;;;;;;;;;5.77;100.00;99899.94;4993959;28;881;-72
2023/10/19 03:47:25;;;;;;;;;;;;;;;5.48;100.00;99899.47;4994074;28;638;-72
2023/10/19 03:49:53;;;;;;;;;;;;;;;5.32;100.00;99899.56;4994019;28;1882;-72
2023/10/19 03:54:47;;;;;;;;;;;;;;;5.05;100.00;99889.69;4993919;28;791;-72
2023/10/19 03:57:29;;;;;;;;;;;;;;;5.02;100.00;99891.19;4993989;28;804;-73
2023/10/19 03:59:56;;;;;;;;;;;;;;;4.99;100.00;99889.16;4993749;28;930;-72
2023/10/19 04:02:24;;;;;;;;;;;;;;;4.89;100.00;99884.31;4993721;28;1359;-72
2023/10/19 04:04:52;;;;;;;;;;;;;;;5.00;100.00;99892.72;4994663;28;810;-73
2023/10/19 04:07:22;;;;;;;;;;;;;;;5.14;100.00;99889.44;4993944;28;858;-73
2023/10/19 04:12:35;;;;;;;;;;;;;;;5.26;100.00;99894.75;4994205;28;1106;-73
2023/10/19 04:15:15;;;;;;;;;;;;;;;5.19;100.00;99895.44;4994042;28;870;-72
2023/10/19 04:17:42;;;;;;;;;;;;;;;5.17;100.00;99891.47;4993932;28;894;-72
2023/10/19 04:22:49;;;;;;;;;;;;;;;5.17;100.00;99886.78;4993720;28;1394;-72
2023/10/19 04:25:16;;;;;;;;;;;;;;;5.16;100.00;99889.88;4993802;28;866;-72
2023/10/19 04:27:43;;;;;;;;;;;;;;;5.21;100.00;99892.34;4993848;28;803;-72
2023/10/19 04:30:16;;;;;;;;;;;;;;;5.23;100.00;99887.28;4993634;28;1918;-72
2023/10/19 04:32:46;;;;;;;;;;;;;;;5.23;100.00;99890.81;4976099;28;1185;-72
2023/10/19 04:35:21;;;;;;;;;;;;;;;5.18;100.00;99896.56;4993354;28;878;-72
2023/10/19 04:37:48;;;;;;;;;;;;;;;5.16;100.00;99890.66;4993399;28;835;-72
2023/10/19 04:40:14;;;;;;;;;;;;;;;5.17;100.00;99891.47;4993533;28;823;-72
2023/10/19 04:42:41;;;;;;;;;;;;;;;5.21;100.00;99893.13;4993599;28;990;-72
2023/10/19 04:45:07;;;;;;;;;;;;;;;5.23;100.00;99892.75;4993524;28;879;-72
2023/10/19 04:47:35;;;;;;;;;;;;;;;5.27;100.00;99899.06;4993760;28;878;-72
2023/10/19 04:50:05;;;;;;;;;;;;;;;5.21;100.00;99897.81;4975876;28;1953;-72
2023/10/19 04:52:32;;;;;;;;;;;;;;;5.17;100.00;99896.97;4993176;28;827;-72
2023/10/19 04:54:59;;;;;;;;;;;;;;;5.19;100.00;99891.91;4993495;28;883;-72
2023/10/19 04:57:25;;;;;;;;;;;;;;;5.22;100.00;99894.69;4993139;28;795;-72
2023/10/19 04:59:52;;;;;;;;;;;;;;;5.27;100.00;99896.34;4993140;28;851;-72
2023/10/19 05:02:18;;;;;;;;;;;;;;;5.31;100.00;99894.44;4992840;28;807;-72
2023/10/19 05:04:45;;;;;;;;;;;;;;;5.35;100.00;99900.00;4992845;28;824;-72
2023/10/19 05:07:12;;;;;;;;;;;;;;;5.49;100.00;99916.72;4993164;28;867;-72
2023/10/19 05:09:39;;;;;;;;;;;;;;;5.63;100.00;99903.25;4992933;28;819;-72
2023/10/19 05:12:09;;;;;;;;;;;;;;;5.73;100.00;99905.34;4992847;28;906;-73
2023/10/19 05:14:40;;;;;;;;;;;;;;;5.85;100.00;99907.13;4992935;28;843;-73
2023/10/19 05:17:07;;;;;;;;;;;;;;;6.00;100.00;99910.91;4993277;28;906;-73
2023/10/19 05:19:34;;;;;;;;;;;;;;;6.12;100.00;99907.97;4992861;28;823;-73
2023/10/19 05:22:02;;;;;;;;;;;;;;;6.30;100.00;99913.69;4993026;28;1281;-73
2023/10/19 05:24:28;;;;;;;;;;;;;;;6.49;100.00;99917.50;4992949;28;812;-73
2023/10/19 05:26:56;;;;;;;;;;;;;;;6.67;100.00;99914.97;4992948;28;855;-74
2023/10/19 05:29:25;;;;;;;;;;;;;;;6.85;100.00;99913.25;4992782;28;890;-73
2023/10/19 05:31:57;;;;;;;;;;;;;;;7.05;100.00;99915.81;4992834;28;1975;-74
2023/10/19 05:34:26;;;;;;;;;;;;;;;7.28;100.00;99912.91;4992427;28;815;-73
2023/10/19 05:36:58;;;;;;;;;;;;;;;7.53;100.00;99915.88;4992383;28;811;-73
2023/10/19 05:39:28;;;;;;;;;;;;;;;7.80;100.00;99919.28;4992328;28;823;-74
2023/10/19 05:42:01;;;;;;;;;;;;;;;8.08;100.00;99918.69;4974773;28;1275;-73
2023/10/19 05:44:30;;;;;;;;;;;;;;;8.33;100.00;99918.88;4992215;28;1024;-74
2023/10/19 05:46:58;;;;;;;;;;;;;;;8.47;100.00;99920.94;4993037;28;816;-73
2023/10/19 05:49:25;;;;;;;;;;;;;;;8.72;100.00;99921.06;4996037;28;895;-73
2023/10/19 05:51:52;;;;;;;;;;;;;;;9.03;100.00;99921.59;4996081;28;1890;-73
2023/10/19 05:54:19;;;;;;;;;;;;;;;9.46;100.00;99924.44;4995990;28;863;-74
2023/10/19 05:56:45;;;;;;;;;;;;;;;9.70;100.00;99930.38;4994439;28;1488;-72
2023/10/19 05:59:13;;;;;;;;;;;;;;;9.63;100.00;99931.16;4995906;28;921;-70
2023/10/19 06:01:41;;;;;;;;;;;;;;;9.36;100.00;99933.47;4995746;28;827;-72
2023/10/19 06:04:07;;;;;;;;;;;;;;;9.15;100.00;99926.75;4995868;28;799;-71
2023/10/19 06:06:34;;;;;;;;;;;;;;;9.14;100.00;99922.41;4995716;28;834;-72
2023/10/19 06:09:02;;;;;;;;;;;;;;;9.37;100.00;99932.31;4995763;28;831;-71
2023/10/19 06:11:37;;;;;;;;;;;;;;;9.64;100.00;99932.72;4995631;28;1890;-72
2023/10/19 06:14:06;;;;;;;;;;;;;;;9.99;100.00;99931.97;4995659;28;835;-72
2023/10/19 06:16:34;;;;;;;;;;;;;;;10.32;100.00;99927.19;4995824;28;815;-72
2023/10/19 06:19:01;;;;;;;;;;;;;;;10.52;100.00;99930.34;4995615;28;816;-72
2023/10/19 06:21:27;;;;;;;;;;;;;;;10.70;100.00;99923.97;4995472;28;803;-71
2023/10/19 06:23:54;;;;;;;;;;;;;;;10.99;100.00;99939.25;4995616;28;851;-71
2023/10/19 06:26:20;;;;;;;;;;;;;;;11.61;100.00;99940.47;4995375;28;926;-72
2023/10/19 06:28:47;;;;;;;;;;;;;;;12.53;100.00;99940.09;4995375;28;846;-73
2023/10/19 06:31:15;;;;;;;;;;;;;;;13.27;100.00;99936.81;4995245;28;1918;-74
2023/10/19 06:33:41;;;;;;;;;;;;;;;13.40;100.00;99932.31;4995276;28;803;-74
2023/10/19 06:36:08;;;;;;;;;;;;;;;13.32;100.00;99943.94;4995350;28;824;-75
2023/10/19 06:38:36;;;;;;;;;;;;;;;13.10;100.00;99946.97;4995276;28;796;-74
2023/10/19 06:41:10;;;;;;;;;;;;;;;12.83;100.00;99952.44;4995352;28;921;-73
2023/10/19 06:43:38;;;;;;;;;;;;;;;12.45;100.00;99958.00;4995010;28;912;-72
2023/10/19 06:46:05;;;;;;;;;;;;;;;12.16;100.00;99961.06;4995061;28;899;-73
2023/10/19 06:48:32;;;;;;;;;;;;;;;12.00;100.00;99961.56;4994933;28;870;-73
2023/10/19 06:51:00;;;;;;;;;;;;;;;12.04;100.00;99954.03;4994962;28;1981;-72
2023/10/19 06:53:26;;;;;;;;;;;;;;;12.21;100.00;99954.28;4995124;28;894;-72
2023/10/19 06:55:52;;;;;;;;;;;;;;;12.55;100.00;99956.31;4994848;28;966;-72
2023/10/19 06:58:20;;;;;;;;;;;;;;;12.97;100.00;99949.50;4994573;28;858;-75
2023/10/19 07:00:56;;;;;;;;;;;;;;;13.70;100.00;99947.34;4994475;28;827;-73
2023/10/19 07:03:25;;;;;;;;;;;;;;;14.42;100.00;99938.59;4995059;28;917;-72
2023/10/19 07:05:56;;;;;;;;;;;;;;;15.08;100.00;99936.91;4994604;28;946;-73
2023/10/19 07:08:22;;;;;;;;;;;;;;;15.76;100.00;99940.19;4994729;28;855;-73
2023/10/19 07:10:52;;;;;;;;;;;;;;;16.24;100.00;99946.97;4994537;28;1890;-74
2023/10/19 07:13:20;;;;;;;;;;;;;;;16.46;100.00;99941.59;4994633;28;863;-74
2023/10/19 07:15:49;;;;;;;;;;;;;;;16.26;100.00;99941.75;4994515;28;882;-74
2023/10/19 07:18:15;;;;;;;;;;;;;;;16.27;100.00;99943.28;4994486;28;899;-75
2023/10/19 07:20:43;;;;;;;;;;;;;;;16.42;100.00;99929.75;4994406;28;849;-73
2023/10/19 07:23:19;;;;;;;;;;;;;;;16.50;100.00;99931.13;4994139;28;1314;-74
2023/10/19 07:25:54;;;;;;;;;;;;;;;16.65;100.00;99937.09;4994675;28;820;-73
2023/10/19 07:28:26;;;;;;;;;;;;;;;16.90;100.00;99925.28;4994404;28;803;-74
2023/10/19 07:30:52;;;;;;;;;;;;;;;17.51;100.00;99917.06;4994363;28;1914;-74
2023/10/19 07:33:22;;;;;;;;;;;;;;;18.21;100.00;99914.41;4994270;28;953;-74
2023/10/19 07:35:54;;;;;;;;;;;;;;;18.90;100.00;99922.72;4994165;28;891;-71
2023/10/19 07:38:23;;;;;;;;;;;;;;;19.41;100.00;99916.00;4994905;28;826;-75
2023/10/19 07:41:00;;;;;;;;;;;;;;;19.63;100.00;99917.94;4994148;28;862;-75
2023/10/19 07:43:27;;;;;;;;;;;;;;;19.57;100.00;99914.97;4994226;28;1031;-74
2023/10/19 07:45:53;;;;;;;;;;;;;;;19.56;100.00;99914.19;4993878;28;866;-72
2023/10/19 07:48:19;;;;;;;;;;;;;;;19.87;100.00;99910.56;4976558;28;1278;-71
2023/10/19 07:50:46;;;;;;;;;;;;;;;20.25;100.00;99912.19;4993767;28;1886;-71
2023/10/19 07:53:13;;;;;;;;;;;;;;;20.40;100.00;99907.53;4976347;28;1486;-70
2023/10/19 07:55:39;;;;;;;;;;;;;;;20.50;100.00;99908.28;4993691;28;862;-72
2023/10/19 07:58:06;;;;;;;;;;;;;;;20.52;100.00;99911.41;4993664;28;870;-72
2023/10/19 08:00:36;;;;;;;;;;;;;;;20.30;100.00;99908.00;4993667;28;819;-71
2023/10/19 08:03:04;;;;;;;;;;;;;;;20.17;100.00;99896.91;4993581;28;859;-71
2023/10/19 08:05:30;;;;;;;;;;;;;;;20.20;100.00;99901.56;4993580;28;831;-71
2023/10/19 08:07:58;;;;;;;;;;;;;;;20.15;100.00;99897.38;4993494;28;894;-72
2023/10/19 08:10:26;;;;;;;;;;;;;;;;;;4992596;28;1957;-73
2023/10/19 08:12:53;;;;;;;;;;;;;;;20.42;100.00;99901.44;4993395;28;819;-74
2023/10/19 08:15:20;;;;;;;;;;;;;;;20.50;100.00;99896.28;4993543;28;835;-73
2023/10/19 08:17:49;;;;;;;;;;;;;;;20.65;100.00;99896.44;4993305;28;881;-73
2023/10/19 08:20:16;;;;;;;;;;;;;;;20.73;100.00;99903.31;4993412;28;800;-74
2023/10/19 08:22:46;;;;;;;;;;;;;;;20.79;100.00;99904.25;4975807;28;1313;-73
2023/10/19 08:25:14;;;;;;;;;;;;;;;20.75;100.00;99906.44;4993147;28;975;-73
2023/10/19 08:27:44;;;;;;;;;;;;;;;20.63;100.00;99898.94;4993184;28;875;-72
2023/10/19 08:30:15;;;;;;;;;;;;;;;20.64;100.00;99906.13;4975783;28;1891;-75
2023/10/19 08:33:01;;;;;;;;;;;;;;;20.69;100.00;99902.69;4993179;28;819;-73
2023/10/19 08:35:28;;;;;;;;;;;;;;;20.59;100.00;99904.75;4993019;28;906;-71
2023/10/19 08:37:57;;;;;;;;;;;;;;;20.52;100.00;99916.25;4993057;28;851;-70
2023/10/19 08:40:26;;;;;;;;;;;;;;;20.30;100.00;99902.38;4992976;28;803;-72
2023/10/19 08:42:53;;;;;;;;;;;;;;;20.19;100.00;99900.03;4992914;28;1024;-72
2023/10/19 08:45:21;;;;;;;;;;;;;;;19.91;100.00;99902.78;4975546;28;1630;-73
2023/10/19 08:47:59;;;;;;;;;;;;;;;19.58;100.00;99902.50;4993002;28;862;-73
2023/10/19 08:50:26;;;;;;;;;;;;;;;19.41;100.00;99887.19;4992950;28;1894;-74
2023/10/19 09:22:44;;;;;;;;;;;;;;;20.38;82.74;99853.88;5459418;23;1614;-57
2023/10/19 09:25:10;;;;;;;;;;;;;;;20.59;82.95;99854.97;4992483;28;830;-55
2023/10/19 09:27:37;;;;;;;;;;;;;;;20.57;83.64;99849.06;4992530;28;858;-55
2023/10/19 09:30:07;;;;;;;;;;;;;;;20.40;82.81;99842.19;4992659;28;1984;-56
2023/10/19 09:32:35;;;;;;;;;;;;;;;20.42;81.71;99845.31;4992450;28;854;-57
2023/10/19 09:35:02;;;;;;;;;;;;;;;20.30;82.00;99832.22;4992327;28;831;-54
2023/10/19 09:37:29;;;;;;;;;;;;;;;20.16;83.10;99831.59;4974935;28;1320;-54
2023/10/19 09:39:56;;;;;;;;;;;;;;;19.96;83.89;99832.06;4992296;28;890;-54
2023/10/19 09:42:24;;;;;;;;;;;;;;;19.85;84.99;99817.72;4992427;28;906;-57
2023/10/19 09:44:55;;;;;;;;;;;;;;;19.72;84.97;99811.47;4974885;28;873;-57
2023/10/19 09:47:26;;;;;;;;;;;;;;;19.80;85.55;99809.94;4992366;28;1231;-57
2023/10/19 09:49:52;;;;;;;;;;;;;;;20.33;83.72;99812.41;4992210;28;1972;-57
2023/10/19 09:52:19;;;;;;;;;;;;;;;20.49;83.44;99805.66;4992047;28;839;-55
2023/10/19 09:54:52;;;;;;;;;;;;;;;20.60;82.69;99803.16;4992341;28;890;-54
2023/10/19 09:57:27;;;;;;;;;;;;;;;20.80;79.94;99794.25;4992193;28;870;-54
2023/10/19 09:59:59;;;;;;;;;;;;;;;20.97;79.64;99782.59;4992306;28;823;-57
2023/10/19 10:02:27;;;;;;;;;;;;;;;21.11;77.77;99787.53;4992625;28;802;-57
2023/10/19 10:04:54;;;;;;;;;;;;;;;20.89;71.85;99787.00;4992507;28;831;-56
2023/10/19 10:07:20;;;;;;;;;;;;;;;20.65;71.63;99781.31;4992405;28;901;-57
2023/10/19 10:09:48;;;;;;;;;;;;;;;20.51;74.20;99783.53;4974861;28;1296;-58
2023/10/19 10:12:18;;;;;;;;;;;;;;;20.68;74.27;99774.78;4992435;28;1949;-57
2023/10/19 10:15:02;;;;;;;;;;;;;;;20.82;75.37;99759.25;4992038;28;878;-57
2023/10/19 10:17:28;;;;;;;;;;;;;;;21.19;73.46;99762.69;4992288;28;1139;-57
2023/10/19 10:20:17;;;;;;;;;;;;;;;21.25;71.94;99746.72;4992047;28;1163;-57
2023/10/19 10:22:43;;;;;;;;;;;;;;;21.33;71.78;99747.91;4979314;28;1316;-57
2023/10/19 10:25:29;;;;;;;;;;;;;;;21.31;71.37;99739.19;4992165;28;886;-56
2023/10/19 10:27:55;;;;;;;;;;;;;;;21.52;67.46;99740.16;4991985;28;859;-56
2023/10/19 10:30:21;;;;;;;;;;;;;;;21.60;65.04;99726.53;4991858;28;1976;-57
2023/10/19 10:32:48;;;;;;;;;;;;;;;21.57;64.30;99722.63;4991912;28;851;-57
2023/10/19 10:35:33;;;;;;;;;;;;;;;21.64;62.35;99713.06;4994314;28;882;-57
2023/10/19 10:38:05;;;;;;;;;;;;;;;21.58;62.40;99717.78;4995259;28;874;-57
2023/10/19 10:40:52;;;;;;;;;;;;;;;21.52;60.91;99714.84;4995415;28;808;-57
2023/10/19 10:43:21;;;;;;;;;;;;;;;21.73;60.32;99707.34;4995314;28;799;-57
2023/10/19 10:45:48;;;;;;;;;;;;;;;21.84;56.08;99694.75;4995372;28;874;-57
2023/10/19 10:48:15;;;;;;;;;;;;;;;21.51;55.63;99688.00;4995205;28;807;-57
2023/10/19 10:50:42;;;;;;;;;;;;;;;20.74;57.52;99697.84;4994870;28;1890;-57
2023/10/19 10:53:11;;;;;;;;;;;;;;;21.09;57.58;99693.75;4995012;28;823;-57
2023/10/19 10:55:37;;;;;;;;;;;;;;;21.51;56.13;99684.44;4995312;28;1230;-55
2023/10/19 10:58:03;;;;;;;;;;;;;;;21.84;55.09;99686.31;4995007;28;1276;-54
2023/10/19 11:00:33;;;;;;;;;;;;;;;22.11;53.08;99691.66;4977405;28;1466;-55
2023/10/19 11:03:01;;;;;;;;;;;;;;;22.11;51.72;99679.66;4994933;28;918;-55
2023/10/19 11:05:28;;;;;;;;;;;;;;;22.08;51.66;99680.59;4977493;28;886;-56
2023/10/19 11:08:14;;;;;;;;;;;;;;;21.88;50.83;99675.66;4994700;28;930;-55
2023/10/19 11:10:47;;;;;;;;;;;;;;;21.81;51.21;99674.78;4994897;28;1950;-56
2023/10/19 11:13:15;;;;;;;;;;;;;;;22.08;49.78;99669.34;4994792;28;843;-55
2023/10/19 11:15:49;;;;;;;;;;;;;;;22.00;47.69;99657.72;4994670;28;885;-55
2023/10/19 11:18:31;;;;;;;;;;;;;;;22.27;45.59;99665.09;4994607;28;868;-55
2023/10/19 11:20:59;;;;;;;;;;;;;;;22.45;45.45;99655.66;4994508;28;984;-55
2023/10/19 11:23:43;;;;;;;;;;;;;;;22.90;44.18;99652.72;4993733;28;1384;-55
2023/10/19 11:26:10;;;;;;;;;;;;;;;23.00;42.42;99659.75;4994446;28;870;-55
2023/10/19 11:28:47;;;;;;;;;;;;;;;23.26;41.53;99648.59;4994489;28;928;-55
2023/10/19 11:31:23;;;;;;;;;;;;;;;23.38;40.36;99641.81;4994242;28;1973;-55
2023/10/19 11:33:52;;;;;;;;;;;;;;;23.87;40.35;99635.66;4994392;28;838;-55
2023/10/19 11:36:20;;;;;;;;;;;;;;;23.93;39.00;99639.31;4994300;28;801;-55
2023/10/19 11:38:47;;;;;;;;;;;;;;;23.47;38.78;99632.44;4994179;28;846;-55
2023/10/19 11:41:14;;;;;;;;;;;;;;;23.45;38.91;99632.16;4994252;28;815;-55
2023/10/19 11:43:42;;;;;;;;;;;;;;;23.36;38.20;99633.06;4976731;28;787;-55
2023/10/19 11:46:09;;;;;;;;;;;;;;;23.20;38.69;99625.19;4993962;28;847;-55
2023/10/19 11:48:36;;;;;;;;;;;;;;;23.38;38.29;99638.22;4994060;28;850;-54
2023/10/19 11:51:03;;;;;;;;;;;;;;;23.59;37.74;99627.69;4993868;28;1951;-55
2023/10/19 11:53:34;;;;;;;;;;;;;;;23.99;37.49;99614.75;4993939;28;854;-55
2023/10/19 11:56:02;;;;;;;;;;;;;;;23.94;36.33;99621.91;4993985;28;878;-55
2023/10/19 11:58:28;;;;;;;;;;;;;;;23.81;36.68;99621.50;4993803;28;866;-54
2023/10/19 12:00:55;;;;;;;;;;;;;;;23.97;35.86;99611.66;4994057;28;894;-55
2023/10/19 12:03:21;;;;;;;;;;;;;;;23.95;35.93;99620.59;4993842;28;897;-55
2023/10/19 12:05:48;;;;;;;;;;;;;;;23.85;36.19;99610.75;4993802;28;795;-55
2023/10/19 12:08:15;;;;;;;;;;;;;;;23.68;36.36;99607.00;4993568;28;898;-55
2023/10/19 12:10:41;;;;;;;;;;;;;;;23.83;36.32;99600.00;4993516;28;1894;-55
2023/10/19 12:13:09;;;;;;;;;;;;;;;23.93;35.67;99591.34;4976093;28;874;-55
2023/10/19 12:15:34;;;;;;;;;;;;;;;23.68;36.32;99595.69;4975974;28;1376;-55
2023/10/19 12:18:07;;;;;;;;;;;;;;;23.70;36.38;99610.84;4993512;28;795;-55
2023/10/19 12:20:35;;;;;;;;;;;;;;;23.63;37.19;99595.16;4993174;28;1017;-55
2023/10/19 12:23:05;;;;;;;;;;;;;;;23.91;38.02;99589.00;4993024;28;1634;-55
2023/10/19 12:25:31;;;;;;;;;;;;;;;24.18;37.74;99586.94;4993330;28;831;-54
2023/10/19 12:27:59;;;;;;;;;;;;;;;24.13;37.36;99584.81;4993205;28;886;-54
2023/10/19 12:30:31;;;;;;;;;;;;;;;24.25;37.19;99583.63;4993181;28;1981;-56
2023/10/19 12:33:01;;;;;;;;;;;;;;;23.91;37.81;99582.59;4993118;28;816;-55
2023/10/19 12:38:16;;;;;;;;;;;;;;;23.61;38.02;99577.94;4993327;28;813;-54
2023/10/19 12:40:47;;;;;;;;;;;;;;;23.50;38.34;99569.38;4993267;28;838;-55
2023/10/19 12:43:15;;;;;;;;;;;;;;;23.62;38.53;99570.28;4993024;28;836;-56
2023/10/19 12:45:41;;;;;;;;;;;;;;;23.58;38.15;99578.97;4992915;28;835;-54
2023/10/19 12:48:10;;;;;;;;;;;;;;;23.43;38.38;99570.59;4992926;28;838;-54
2023/10/19 12:50:36;;;;;;;;;;;;;;;23.47;38.49;99570.38;4993013;28;1953;-55
2023/10/19 12:53:03;;;;;;;;;;;;;;;23.80;38.45;99569.94;4992902;28;862;-54
2023/10/19 12:55:30;;;;;;;;;;;;;;;24.14;37.77;99567.38;4992883;28;811;-55
2023/10/19 12:57:57;;;;;;;;;;;;;;;24.52;37.44;99548.41;4992233;28;939;-55
2023/10/19 13:00:24;;;;;;;;;;;;;;;24.43;36.28;99548.56;4992736;28;858;-55
2023/10/19 13:03:03;;;;;;;;;;;;;;;24.15;36.80;99559.69;4992694;28;808;-54
2023/10/19 13:05:34;;;;;;;;;;;;;;;23.89;36.87;99562.56;4975541;28;1232;-54
2023/10/19 13:08:01;;;;;;;;;;;;;;;23.80;37.11;99563.53;4992631;28;828;-55
2023/10/19 13:10:32;;;;;;;;;;;;;;;23.88;37.23;99553.34;4992677;28;1890;-54
2023/10/19 13:13:03;;;;;;;;;;;;;;;24.17;36.98;99551.47;4992533;28;854;-55
2023/10/19 13:15:34;;;;;;;;;;;;;;;23.88;37.09;99547.69;4992670;28;775;-54
2023/10/19 13:18:01;;;;;;;;;;;;;;;23.19;38.07;99537.03;4992385;28;902;-53
2023/10/19 13:20:33;;;;;;;;;;;;;;;23.11;38.44;99544.38;4992607;28;811;-51
2023/10/19 13:23:03;;;;;;;;;;;;;;;22.71;39.27;99545.94;4992465;28;1168;-52
2023/10/19 13:25:47;;;;;;;;;;;;;;;22.46;40.27;99550.19;4992534;28;799;-52
2023/10/19 13:28:14;;;;;;;;;;;;;;;22.39;40.91;99550.63;4992608;28;870;-54
2023/10/19 13:30:50;;;;;;;;;;;;;;;22.73;40.76;99540.56;4992665;28;1973;-54
2023/10/19 13:33:18;;;;;;;;;;;;;;;22.92;40.18;99532.59;4974934;28;1498;-54
2023/10/19 13:35:44;;;;;;;;;;;;;;;22.93;40.29;99534.13;4992386;28;863;-55
2023/10/19 13:38:13;;;;;;;;;;;;;;;22.93;40.43;99539.00;4992336;28;866;-54
2023/10/19 13:40:40;;;;;;;;;;;;;;;22.97;40.56;99526.25;4992267;28;903;-54
2023/10/19 13:43:07;;;;;;;;;;;;;;;22.98;40.46;99533.44;4992262;28;882;-55
2023/10/19 13:45:34;;;;;;;;;;;;;;;22.86;40.73;99536.63;4992342;28;928;-55
2023/10/19 13:48:04;;;;;;;;;;;;;;;22.85;40.46;99538.66;4974872;28;894;-55
2023/10/19 13:50:31;;;;;;;;;;;;;;;22.66;40.88;99535.38;4992184;28;1890;-56
2023/10/19 13:53:00;;;;;;;;;;;;;;;22.39;41.56;99530.91;4992421;28;887;-56
2023/10/19 13:55:26;;;;;;;;;;;;;;;22.27;41.56;99526.38;4992290;28;804;-55
2023/10/19 13:57:54;;;;;;;;;;;;;;;21.96;42.64;99524.88;4992174;28;901;-55
2023/10/19 14:00:30;;;;;;;;;;;;;;;21.61;43.14;99506.69;4992179;28;829;-55
2023/10/19 14:03:00;;;;;;;;;;;;;;;21.28;44.03;99515.28;4974790;28;1419;-55
2023/10/19 14:05:28;;;;;;;;;;;;;;;21.13;44.73;99509.66;4992150;28;873;-56
2023/10/19 14:07:55;;;;;;;;;;;;;;;21.08;45.27;99503.91;4992128;28;890;-55
2023/10/19 14:10:22;;;;;;;;;;;;;;;21.06;45.52;99493.19;4994873;28;1890;-55
2023/10/19 14:12:49;;;;;;;;;;;;;;;20.94;45.16;99494.22;4995878;28;831;-55
2023/10/19 14:15:17;;;;;;;;;;;;;;;20.72;45.05;99488.94;4995743;28;855;-55
2023/10/19 14:17:45;;;;;;;;;;;;;;;20.51;45.64;99485.19;4995603;28;845;-56
2023/10/19 14:20:12;;;;;;;;;;;;;;;20.26;46.24;99484.38;4995800;28;846;-56
2023/10/19 14:22:40;;;;;;;;;;;;;;;20.08;47.03;99485.28;4995973;28;999;-57
2023/10/19 14:25:08;;;;;;;;;;;;;;;19.94;47.83;99480.38;4995506;28;785;-56
2023/10/19 14:27:34;;;;;;;;;;;;;;;19.76;48.57;99487.63;4978057;28;1181;-59
2023/10/19 14:30:01;;;;;;;;;;;;;;;19.47;49.43;99482.53;4995371;28;874;-59